Time;durP1;ratioP1;P1;durP2;ratioP2;P2;SDS_P1;SDS_P2;PMS_P1;PMS_P2;Temp;Humidity;BMP_temperature;BMP_pressure;BME280_temperature;BME280_humidity;BME280_pressure;Samples;Min_cycle;Max_cycle;Signal;HPM_P1;HPM_P2
2023/03/29 00:02:15;;;;;;;;;;;;;;;;;;4998123;28;19926;-67
2023/03/29 00:04:41;;;;;;;;;;;;;;;;;;5017589;28;19920;-68
2023/03/29 00:07:06;;;;;;;;;;;;;;;;;;5018048;28;20304;-67
2023/03/29 00:09:32;;;;;;;;;;;;;;;;;;4989195;28;19940;-67
2023/03/29 00:11:58;;;;;;;;;;;;;;;;;;4993305;28;21596;-66
2023/03/29 00:17:40;;;;;;;;;;;;;;;;;;5012850;28;19994;-68
2023/03/29 00:20:08;;;;;;;;;;;;;;;;;;5010704;28;20390;-68
2023/03/29 00:22:36;;;;;;;;;;;;;;;;;;5014911;28;19917;-68
2023/03/29 00:25:02;;;;;;;;;;;;;;;;;;4976447;28;20381;-68
2023/03/29 00:27:28;;;;;;;;;;;;;;;;;;4995044;28;19917;-68
2023/03/29 00:29:53;;;;;;;;;;;;;;;;;;4979419;28;19920;-67
2023/03/29 00:32:18;;;;;;;;;;;;;;;;;;5017988;28;19928;-67
2023/03/29 00:34:44;;;;;;;;;;;;;;;;;;4986210;28;20502;-67
2023/03/29 00:37:13;;;;;;;;;;;;;;;;;;4984748;28;19921;-67
2023/03/29 00:39:40;;;;;;;;;;;;;;;;;;5015445;28;19921;-67
2023/03/29 00:42:06;;;;;;;;;;;;;;;;;;5018940;28;19978;-67
2023/03/29 00:44:31;;;;;;;;;;;;;;;;;;5021501;28;19925;-68
2023/03/29 00:46:57;;;;;;;;;;;;;;;;;;5020184;28;19925;-67
2023/03/29 00:49:22;;;;;;;;;;;;;;;;;;5001395;28;20549;-68
2023/03/29 00:51:47;;;;;;;;;;;;;;;;;;4998756;28;19933;-66
2023/03/29 00:54:13;;;;;;;;;;;;;;;;;;4980606;28;19921;-67
2023/03/29 00:56:42;;;;;;;;;;;;;;;;;;5001093;28;19970;-66
2023/03/29 00:59:07;;;;;;;;;;;;;;;;;;5035535;28;20292;-66
2023/03/29 01:01:36;;;;;;;;;;;;;;;;;;5035884;28;20504;-67
2023/03/29 01:04:07;;;;;;;;;;;;;;;;;;5003328;28;19991;-69
2023/03/29 01:06:33;;;;;;;;;;;;;;;;;;5032650;28;20556;-69
2023/03/29 01:08:58;;;;;;;;;;;;;;;;;;4985828;28;19921;-67
2023/03/29 01:11:23;;;;;;;;;;;;;;;;;;4987668;28;20415;-67
2023/03/29 01:13:51;;;;;;;;;;;;;;;;;;5029244;28;19969;-66
2023/03/29 01:16:17;;;;;;;;;;;;;;;;;;5000802;28;20371;-68
2023/03/29 01:18:45;;;;;;;;;;;;;;;;;;4994461;28;20384;-67
2023/03/29 01:21:11;;;;;;;;;;;;;;;;;;5004148;28;19928;-67
2023/03/29 01:23:36;;;;;;;;;;;;;;;;;;4999684;28;19917;-66
2023/03/29 01:26:08;;;;;;;;;;;;;;;;;;5002837;28;20030;-66
2023/03/29 01:28:34;;;;;;;;;;;;;;;;;;5030246;28;20365;-66
2023/03/29 01:31:02;;;;;;;;;;;;;;;;;;5000793;28;20276;-66
2023/03/29 01:33:28;;;;;;;;;;;;;;;;;;5000575;28;19917;-66
2023/03/29 01:35:56;;;;;;;;;;;;;;;;;;4998621;28;19921;-66
2023/03/29 01:38:24;;;;;;;;;;;;;;;;;;5001875;28;19917;-67
2023/03/29 01:40:52;;;;;;;;;;;;;;;;;;5001050;28;19921;-66
2023/03/29 01:43:17;;;;;;;;;;;;;;;;;;4996164;28;19960;-66
2023/03/29 01:45:43;;;;;;;;;;;;;;;;;;4984357;28;20024;-66
2023/03/29 01:48:08;;;;;;;;;;;;;;;;;;4983212;28;19921;-66
2023/03/29 01:50:36;;;;;;;;;;;;;;;;;;4995446;28;20466;-66
2023/03/29 01:53:02;;;;;;;;;;;;;;;;;;5013166;28;19975;-66
2023/03/29 01:55:27;;;;;;;;;;;;;;;;;;4999449;28;20039;-66
2023/03/29 01:57:53;;;;;;;;;;;;;;;;;;4999493;28;20121;-66
2023/03/29 02:00:18;;;;;;;;;;;;;;;;;;4998744;28;19921;-67
2023/03/29 02:02:46;;;;;;;;;;;;;;;;;;4995412;28;20007;-67
2023/03/29 02:05:18;;;;;;;;;;;;;;;;;;4987045;28;19936;-66
2023/03/29 02:07:46;;;;;;;;;;;;;;;;;;4998078;28;19921;-65
2023/03/29 02:10:11;;;;;;;;;;;;;;;;;;4986044;28;19921;-66
2023/03/29 02:12:37;;;;;;;;;;;;;;;;;;4980475;28;19925;-66
2023/03/29 02:15:05;;;;;;;;;;;;;;;;;;4994575;28;19921;-67
2023/03/29 02:17:31;;;;;;;;;;;;;;;;;;5032074;28;20976;-66
2023/03/29 02:19:59;;;;;;;;;;;;;;;;;;4998477;28;19931;-67
2023/03/29 02:22:25;;;;;;;;;;;;;;;;;;4999413;28;19921;-67
2023/03/29 02:24:50;;;;;;;;;;;;;;;;;;4999626;28;19924;-66
2023/03/29 02:27:18;;;;;;;;;;;;;;;;;;4994778;28;19967;-66
2023/03/29 02:29:46;;;;;;;;;;;;;;;;;;4996263;28;19967;-67
2023/03/29 02:32:14;;;;;;;;;;;;;;;;;;4987617;28;20426;-66
2023/03/29 02:34:40;;;;;;;;;;;;;;;;;;5013482;28;19921;-66
2023/03/29 02:37:09;;;;;;;;;;;;;;;;;;4996235;28;19920;-67
2023/03/29 02:39:34;;;;;;;;;;;;;;;;;;4981621;28;20315;-67
2023/03/29 02:42:02;;;;;;;;;;;;;;;;;;4982914;28;20114;-66
2023/03/29 02:44:27;;;;;;;;;;;;;;;;;;4999096;28;20333;-68
2023/03/29 02:46:55;;;;;;;;;;;;;;;;;;5000086;28;19925;-67
2023/03/29 02:49:23;;;;;;;;;;;;;;;;;;4982418;28;19925;-67
2023/03/29 02:51:51;;;;;;;;;;;;;;;;;;5003075;28;19917;-67
2023/03/29 02:54:17;;;;;;;;;;;;;;;;;;4999925;28;19924;-68
2023/03/29 02:56:46;;;;;;;;;;;;;;;;;;5000706;28;20544;-68
2023/03/29 02:59:13;;;;;;;;;;;;;;;;;;4996516;28;19944;-68
2023/03/29 03:01:44;;;;;;;;;;;;;;;;;;4998821;28;19979;-68
2023/03/29 03:04:12;;;;;;;;;;;;;;;;;;4998793;28;19925;-68
2023/03/29 03:06:38;;;;;;;;;;;;;;;;;;5029833;28;19936;-67
2023/03/29 03:09:04;;;;;;;;;;;;;;;;;;4996204;28;19917;-67
2023/03/29 03:11:32;;;;;;;;;;;;;;;;;;5001312;28;19922;-68
2023/03/29 03:14:00;;;;;;;;;;;;;;;;;;4998528;28;19921;-67
2023/03/29 03:16:26;;;;;;;;;;;;;;;;;;4996504;28;20452;-68
2023/03/29 03:18:54;;;;;;;;;;;;;;;;;;4999877;28;19921;-68
2023/03/29 03:21:22;;;;;;;;;;;;;;;;;;4999884;28;19932;-68
2023/03/29 03:23:47;;;;;;;;;;;;;;;;;;5010834;28;19921;-70
2023/03/29 03:26:12;;;;;;;;;;;;;;;;;;4983928;28;19925;-68
2023/03/29 03:28:38;;;;;;;;;;;;;;;;;;4994998;28;19924;-69
2023/03/29 03:31:03;;;;;;;;;;;;;;;;;;5010084;28;20304;-68
2023/03/29 03:33:29;;;;;;;;;;;;;;;;;;4994636;28;19917;-68
2023/03/29 03:36:01;;;;;;;;;;;;;;;;;;4977143;28;19972;-70
2023/03/29 03:38:27;;;;;;;;;;;;;;;;;;4984180;28;19916;-70
2023/03/29 03:40:55;;;;;;;;;;;;;;;;;;4996840;28;19936;-69
2023/03/29 03:43:20;;;;;;;;;;;;;;;;;;4997082;28;19925;-69
2023/03/29 03:45:46;;;;;;;;;;;;;;;;;;5030219;28;19924;-70
2023/03/29 03:48:11;;;;;;;;;;;;;;;;;;4992840;28;20318;-70
2023/03/29 03:50:40;;;;;;;;;;;;;;;;;;5001103;28;20096;-70
2023/03/29 03:53:08;;;;;;;;;;;;;;;;;;4980112;28;19921;-70
2023/03/29 03:55:33;;;;;;;;;;;;;;;;;;4995455;28;19940;-71
2023/03/29 03:58:03;;;;;;;;;;;;;;;;;;4999042;28;19921;-72
2023/03/29 04:00:28;;;;;;;;;;;;;;;;;;4993064;28;20028;-71
2023/03/29 04:02:55;;;;;;;;;;;;;;;;;;4977018;28;19932;-71
2023/03/29 04:05:20;;;;;;;;;;;;;;;;;;4991750;28;20159;-70
2023/03/29 04:07:48;;;;;;;;;;;;;;;;;;4983307;28;19959;-69
2023/03/29 04:10:16;;;;;;;;;;;;;;;;;;5033980;28;20391;-71
2023/03/29 04:16:00;;;;;;;;;;;;;;;;;;4999401;28;20595;-71
2023/03/29 04:18:26;;;;;;;;;;;;;;;;;;4995662;28;19921;-68
2023/03/29 04:20:51;;;;;;;;;;;;;;;;;;4980286;28;21070;-70
2023/03/29 04:23:17;;;;;;;;;;;;;;;;;;5000586;28;20346;-70
2023/03/29 04:25:44;;;;;;;;;;;;;;;;;;4999142;28;20110;-69
2023/03/29 04:28:13;;;;;;;;;;;;;;;;;;4994079;28;21220;-71
2023/03/29 04:30:38;;;;;;;;;;;;;;;;;;5009027;28;19991;-70
2023/03/29 04:33:03;;;;;;;;;;;;;;;;;;5000104;28;19921;-70
2023/03/29 04:35:29;;;;;;;;;;;;;;;;;;4983194;28;19924;-71
2023/03/29 04:37:54;;;;;;;;;;;;;;;;;;4999078;28;20047;-72
2023/03/29 04:40:19;;;;;;;;;;;;;;;;;;5001054;28;19917;-72
2023/03/29 04:46:02;;;;;;;;;;;;;;;;;;5002962;28;19939;-70
2023/03/29 04:48:30;;;;;;;;;;;;;;;;;;5031348;28;20391;-69
2023/03/29 04:50:55;;;;;;;;;;;;;;;;;;5000686;28;19965;-70
2023/03/29 04:53:21;;;;;;;;;;;;;;;;;;5000615;28;19917;-69
2023/03/29 04:55:49;;;;;;;;;;;;;;;;;;5001124;28;20030;-71
2023/03/29 04:58:17;;;;;;;;;;;;;;;;;;5002428;28;20429;-71
2023/03/29 05:00:45;;;;;;;;;;;;;;;;;;5003582;28;19956;-71
2023/03/29 05:03:13;;;;;;;;;;;;;;;;;;5016516;28;19925;-70
2023/03/29 05:05:38;;;;;;;;;;;;;;;;;;5001939;28;19935;-71
2023/03/29 05:08:03;;;;;;;;;;;;;;;;;;5023776;28;20114;-71
2023/03/29 05:10:29;;;;;;;;;;;;;;;;;;5002477;28;19921;-71
2023/03/29 05:12:55;;;;;;;;;;;;;;;;;;5022076;28;19956;-71
2023/03/29 05:15:20;;;;;;;;;;;;;;;;;;4990339;28;19920;-71
2023/03/29 05:17:48;;;;;;;;;;;;;;;;;;5021729;28;19931;-71
2023/03/29 05:20:14;;;;;;;;;;;;;;;;;;5002761;28;19921;-71
2023/03/29 05:22:40;;;;;;;;;;;;;;;;;;5033470;28;19917;-71
2023/03/29 05:25:05;;;;;;;;;;;;;;;;;;4998513;28;20308;-71
2023/03/29 05:27:32;;;;;;;;;;;;;;;;;;5002226;28;19921;-71
2023/03/29 05:29:57;;;;;;;;;;;;;;;;;;5018500;28;20111;-71
2023/03/29 05:32:23;;;;;;;;;;;;;;;;;;5032186;28;19921;-70
2023/03/29 05:34:49;;;;;;;;;;;;;;;;;;4986712;28;19924;-71
2023/03/29 05:37:14;;;;;;;;;;;;;;;;;;5002182;28;19927;-72
2023/03/29 05:39:39;;;;;;;;;;;;;;;;;;4996616;28;20288;-73
2023/03/29 05:42:05;;;;;;;;;;;;;;;;;;5021976;28;20059;-74
2023/03/29 05:44:30;;;;;;;;;;;;;;;;;;4998793;28;19983;-72
2023/03/29 05:46:56;;;;;;;;;;;;;;;;;;5003245;28;19927;-72
2023/03/29 05:49:21;;;;;;;;;;;;;;;;;;5018187;28;20300;-72
2023/03/29 05:51:46;;;;;;;;;;;;;;;;;;4985141;28;20105;-72
2023/03/29 05:54:13;;;;;;;;;;;;;;;;;;5001886;28;19998;-73
2023/03/29 05:56:39;;;;;;;;;;;;;;;;;;4996233;28;21552;-72
2023/03/29 05:59:04;;;;;;;;;;;;;;;;;;5020970;28;19921;-71
2023/03/29 06:01:31;;;;;;;;;;;;;;;;;;5022398;28;21802;-72
2023/03/29 06:03:56;;;;;;;;;;;;;;;;;;5016877;28;19979;-72
2023/03/29 06:06:22;;;;;;;;;;;;;;;;;;4999379;28;19929;-71
2023/03/29 06:08:47;;;;;;;;;;;;;;;;;;4981592;28;20321;-71
2023/03/29 06:11:14;;;;;;;;;;;;;;;;;;4990524;28;20955;-72
2023/03/29 06:13:42;;;;;;;;;;;;;;;;;;5002766;28;19921;-73
2023/03/29 06:16:08;;;;;;;;;;;;;;;;;;5001163;28;19923;-71
2023/03/29 06:18:34;;;;;;;;;;;;;;;;;;4988153;28;21464;-70
2023/03/29 06:21:01;;;;;;;;;;;;;;;;;;5017019;28;19979;-71
2023/03/29 06:23:26;;;;;;;;;;;;;;;;;;5001190;28;19996;-71
2023/03/29 06:25:55;;;;;;;;;;;;;;;;;;5001152;28;19925;-70
2023/03/29 06:28:20;;;;;;;;;;;;;;;;;;5013975;28;20207;-70
2023/03/29 06:30:46;;;;;;;;;;;;;;;;;;5002454;28;19917;-71
2023/03/29 06:33:11;;;;;;;;;;;;;;;;;;4998507;28;19928;-71
2023/03/29 06:35:37;;;;;;;;;;;;;;;;;;5016228;28;19917;-71
2023/03/29 06:38:03;;;;;;;;;;;;;;;;;;5021283;28;19920;-71
2023/03/29 06:40:29;;;;;;;;;;;;;;;;;;5002915;28;19924;-71
2023/03/29 06:42:56;;;;;;;;;;;;;;;;;;5001119;28;19921;-70
2023/03/29 06:45:22;;;;;;;;;;;;;;;;;;5024037;28;19916;-71
2023/03/29 06:47:47;;;;;;;;;;;;;;;;;;4999982;28;19921;-71
2023/03/29 06:50:13;;;;;;;;;;;;;;;;;;5022323;28;19921;-70
2023/03/29 06:52:38;;;;;;;;;;;;;;;;;;5002081;28;20520;-71
2023/03/29 06:55:06;;;;;;;;;;;;;;;;;;4996367;28;19947;-70
2023/03/29 06:57:32;;;;;;;;;;;;;;;;;;4990220;28;19958;-69
2023/03/29 06:59:58;;;;;;;;;;;;;;;;;;5004948;28;20263;-71
2023/03/29 07:02:23;;;;;;;;;;;;;;;;;;4997424;28;19926;-71
2023/03/29 07:04:48;;;;;;;;;;;;;;;;;;4998158;28;20028;-72
2023/03/29 07:07:21;;;;;;;;;;;;;;;;;;4981545;28;20019;-70
2023/03/29 07:09:52;;;;;;;;;;;;;;;;;;4979629;28;19932;-71
2023/03/29 07:12:18;;;;;;;;;;;;;;;;;;5030947;28;20002;-70
2023/03/29 07:14:43;;;;;;;;;;;;;;;;;;4997316;28;19921;-71
2023/03/29 07:17:11;;;;;;;;;;;;;;;;;;4998611;28;20684;-70
2023/03/29 07:19:38;;;;;;;;;;;;;;;;;;4999864;28;19921;-70
2023/03/29 07:22:07;;;;;;;;;;;;;;;;;;5029036;28;20265;-71
2023/03/29 07:24:32;;;;;;;;;;;;;;;;;;5000775;28;19921;-71
2023/03/29 07:26:57;;;;;;;;;;;;;;;;;;5000221;28;19990;-71
2023/03/29 07:29:23;;;;;;;;;;;;;;;;;;5002895;28;20306;-71
2023/03/29 07:31:49;;;;;;;;;;;;;;;;;;5014894;28;19921;-70
2023/03/29 07:34:16;;;;;;;;;;;;;;;;;;4997622;28;19917;-69
2023/03/29 07:36:42;;;;;;;;;;;;;;;;;;5029089;28;19921;-69
2023/03/29 07:39:08;;;;;;;;;;;;;;;;;;5001937;28;20442;-70
2023/03/29 07:41:33;;;;;;;;;;;;;;;;;;4978816;28;19928;-71
2023/03/29 07:44:03;;;;;;;;;;;;;;;;;;5013061;28;19921;-70
2023/03/29 07:46:29;;;;;;;;;;;;;;;;;;5032891;28;20011;-70
2023/03/29 07:48:55;;;;;;;;;;;;;;;;;;4999625;28;19921;-68
2023/03/29 07:51:21;;;;;;;;;;;;;;;;;;4982687;28;19921;-70
2023/03/29 07:53:46;;;;;;;;;;;;;;;;;;4982416;28;19929;-70
2023/03/29 07:56:12;;;;;;;;;;;;;;;;;;4982407;28;20116;-71
2023/03/29 07:58:39;;;;;;;;;;;;;;;;;;5031335;28;19975;-70
2023/03/29 08:01:07;;;;;;;;;;;;;;;;;;4996892;28;19929;-71
2023/03/29 08:03:32;;;;;;;;;;;;;;;;;;4998159;28;19925;-71
2023/03/29 08:05:57;;;;;;;;;;;;;;;;;;4983809;28;20599;-71
2023/03/29 08:08:23;;;;;;;;;;;;;;;;;;5018384;28;19921;-70
2023/03/29 08:10:51;;;;;;;;;;;;;;;;;;5023019;28;20299;-71
2023/03/29 08:13:16;;;;;;;;;;;;;;;;;;5009234;28;19917;-71
2023/03/29 08:15:45;;;;;;;;;;;;;;;;;;5009805;28;19920;-73
2023/03/29 08:18:10;;;;;;;;;;;;;;;;;;5044136;28;19998;-71
2023/03/29 08:20:36;;;;;;;;;;;;;;;;;;5026868;28;19925;-71
2023/03/29 08:23:01;;;;;;;;;;;;;;;;;;5007707;28;20018;-71
2023/03/29 08:25:27;;;;;;;;;;;;;;;;;;5026280;28;20471;-71
2023/03/29 08:27:52;;;;;;;;;;;;;;;;;;5021180;28;19921;-72
2023/03/29 08:30:18;;;;;;;;;;;;;;;;;;5009496;28;19977;-71
2023/03/29 08:32:43;;;;;;;;;;;;;;;;;;4985101;28;20319;-70
2023/03/29 08:35:09;;;;;;;;;;;;;;;;;;5026199;28;19931;-70
2023/03/29 08:37:35;;;;;;;;;;;;;;;;;;5007079;28;20011;-71
2023/03/29 08:40:00;;;;;;;;;;;;;;;;;;5039913;28;19994;-71
2023/03/29 08:42:25;;;;;;;;;;;;;;;;;;5008827;28;20344;-70
2023/03/29 08:44:51;;;;;;;;;;;;;;;;;;5010524;28;19928;-70
2023/03/29 08:47:17;;;;;;;;;;;;;;;;;;5005459;28;20043;-69
2023/03/29 08:49:42;;;;;;;;;;;;;;;;;;5024824;28;19916;-71
2023/03/29 08:52:08;;;;;;;;;;;;;;;;;;5005388;28;19971;-74
2023/03/29 08:54:33;;;;;;;;;;;;;;;;;;5021456;28;19939;-71
2023/03/29 08:57:00;;;;;;;;;;;;;;;;;;5008213;28;19927;-70
2023/03/29 08:59:25;;;;;;;;;;;;;;;;;;5006627;28;20531;-72
2023/03/29 09:01:51;;;;;;;;;;;;;;;;;;5026347;28;20006;-72
2023/03/29 09:04:19;;;;;;;;;;;;;;;;;;5024860;28;19924;-74
2023/03/29 09:06:44;;;;;;;;;;;;;;;;;;5003930;28;20006;-72
2023/03/29 09:09:10;;;;;;;;;;;;;;;;;;5021479;28;20191;-71
2023/03/29 09:11:35;;;;;;;;;;;;;;;;;;5008161;28;19956;-71
2023/03/29 09:14:00;;;;;;;;;;;;;;;;;;5026644;28;19989;-72
2023/03/29 09:16:26;;;;;;;;;;;;;;;;;;5004384;28;19970;-72
2023/03/29 09:18:52;;;;;;;;;;;;;;;;;;5005049;28;20305;-70
2023/03/29 09:21:20;;;;;;;;;;;;;;;;;;4994549;28;19917;-71
2023/03/29 09:23:46;;;;;;;;;;;;;;;;;;5019120;28;19924;-72
2023/03/29 09:26:11;;;;;;;;;;;;;;;;;;5019317;28;21641;-73
2023/03/29 09:28:37;;;;;;;;;;;;;;;;;;4988321;28;20003;-72
2023/03/29 09:31:02;;;;;;;;;;;;;;;;;;4986859;28;20050;-73
2023/03/29 09:33:27;;;;;;;;;;;;;;;;;;5003493;28;20430;-73
2023/03/29 09:35:53;;;;;;;;;;;;;;;;;;5002012;28;21460;-71
2023/03/29 09:38:19;;;;;;;;;;;;;;;;;;4991102;28;19920;-73
2023/03/29 09:40:44;;;;;;;;;;;;;;;;;;5004497;28;19924;-72
2023/03/29 09:43:10;;;;;;;;;;;;;;;;;;5023481;28;19986;-72
2023/03/29 09:45:35;;;;;;;;;;;;;;;;;;5006807;28;19924;-73
2023/03/29 09:48:03;;;;;;;;;;;;;;;;;;5003243;28;19917;-73
2023/03/29 09:50:29;;;;;;;;;;;;;;;;;;5022457;28;20085;-72
2023/03/29 09:52:55;;;;;;;;;;;;;;;;;;5021190;28;19925;-71
2023/03/29 09:55:21;;;;;;;;;;;;;;;;;;5003066;28;19917;-71
2023/03/29 09:57:46;;;;;;;;;;;;;;;;;;5023416;28;19921;-73
2023/03/29 10:00:13;;;;;;;;;;;;;;;;;;4986316;28;20126;-72
2023/03/29 10:02:38;;;;;;;;;;;;;;;;;;5017133;28;20501;-71
2023/03/29 10:05:04;;;;;;;;;;;;;;;;;;4999982;28;20631;-69
2023/03/29 10:07:29;;;;;;;;;;;;;;;;;;5003411;28;20006;-73
2023/03/29 10:09:55;;;;;;;;;;;;;;;;;;4999480;28;19927;-72
2023/03/29 10:12:20;;;;;;;;;;;;;;;;;;5005762;28;20115;-74
2023/03/29 10:14:45;;;;;;;;;;;;;;;;;;5004482;28;20402;-71
2023/03/29 10:17:11;;;;;;;;;;;;;;;;;;4986393;28;19921;-71
2023/03/29 10:19:36;;;;;;;;;;;;;;;;;;5000027;28;20088;-72
2023/03/29 10:22:02;;;;;;;;;;;;;;;;;;5003645;28;20374;-70
2023/03/29 10:24:28;;;;;;;;;;;;;;;;;;4983481;28;19963;-73
2023/03/29 10:26:54;;;;;;;;;;;;;;;;;;5025309;28;19984;-68
2023/03/29 10:29:19;;;;;;;;;;;;;;;;;;5002564;28;19917;-72
2023/03/29 10:31:45;;;;;;;;;;;;;;;;;;5018091;28;19962;-70
2023/03/29 10:34:10;;;;;;;;;;;;;;;;;;4987246;28;20077;-70
2023/03/29 10:36:36;;;;;;;;;;;;;;;;;;5019984;28;20470;-70
2023/03/29 10:39:01;;;;;;;;;;;;;;;;;;5001739;28;19916;-72
2023/03/29 10:41:26;;;;;;;;;;;;;;;;;;4988340;28;19995;-71
2023/03/29 10:43:52;;;;;;;;;;;;;;;;;;5001040;28;20331;-71
2023/03/29 10:46:18;;;;;;;;;;;;;;;;;;4987679;28;19929;-70
2023/03/29 10:48:43;;;;;;;;;;;;;;;;;;5002343;28;20000;-71
2023/03/29 10:51:09;;;;;;;;;;;;;;;;;;5021888;28;19921;-71
2023/03/29 10:53:34;;;;;;;;;;;;;;;;;;4986803;28;19934;-71
2023/03/29 10:56:01;;;;;;;;;;;;;;;;;;5000488;28;20594;-72
2023/03/29 10:58:26;;;;;;;;;;;;;;;;;;5021413;28;19991;-71
2023/03/29 11:00:51;;;;;;;;;;;;;;;;;;4987053;28;19920;-70
2023/03/29 11:03:17;;;;;;;;;;;;;;;;;;4979831;28;19965;-70
2023/03/29 11:05:45;;;;;;;;;;;;;;;;;;4997330;28;20137;-71
2023/03/29 11:08:11;;;;;;;;;;;;;;;;;;4997507;28;19921;-70
2023/03/29 11:10:37;;;;;;;;;;;;;;;;;;5001078;28;20040;-71
2023/03/29 11:13:02;;;;;;;;;;;;;;;;;;4998632;28;19952;-72
2023/03/29 11:15:28;;;;;;;;;;;;;;;;;;5001499;28;19921;-70
2023/03/29 11:17:53;;;;;;;;;;;;;;;;;;4981472;28;20316;-71
2023/03/29 11:20:18;;;;;;;;;;;;;;;;;;4998659;28;19933;-71
2023/03/29 11:22:44;;;;;;;;;;;;;;;;;;4982811;28;19921;-70
2023/03/29 11:25:12;;;;;;;;;;;;;;;;;;4998468;28;19947;-71
2023/03/29 11:27:37;;;;;;;;;;;;;;;;;;4984716;28;20366;-71
2023/03/29 11:30:05;;;;;;;;;;;;;;;;;;5002765;28;19971;-70
2023/03/29 11:32:30;;;;;;;;;;;;;;;;;;5029625;28;19928;-72
2023/03/29 11:34:56;;;;;;;;;;;;;;;;;;4983285;28;19921;-73
2023/03/29 11:37:21;;;;;;;;;;;;;;;;;;4997053;28;20797;-73
2023/03/29 11:39:46;;;;;;;;;;;;;;;;;;4992694;28;21519;-72
2023/03/29 11:42:12;;;;;;;;;;;;;;;;;;4999428;28;20545;-70
2023/03/29 11:44:37;;;;;;;;;;;;;;;;;;4998908;28;20410;-73
2023/03/29 11:47:03;;;;;;;;;;;;;;;;;;4999547;28;19983;-71
2023/03/29 11:49:29;;;;;;;;;;;;;;;;;;4981918;28;20052;-74
2023/03/29 11:51:54;;;;;;;;;;;;;;;;;;4983233;28;20432;-69
2023/03/29 11:54:19;;;;;;;;;;;;;;;;;;5032700;28;19921;-69
2023/03/29 11:56:45;;;;;;;;;;;;;;;;;;4999381;28;19921;-72
2023/03/29 11:59:11;;;;;;;;;;;;;;;;;;4997632;28;19936;-71
2023/03/29 12:01:36;;;;;;;;;;;;;;;;;;5002386;28;19920;-71
2023/03/29 12:04:02;;;;;;;;;;;;;;;;;;5001989;28;19922;-72
2023/03/29 12:06:30;;;;;;;;;;;;;;;;;;4984609;28;19929;-71
2023/03/29 12:08:57;;;;;;;;;;;;;;;;;;5002406;28;19916;-70
2023/03/29 12:11:26;;;;;;;;;;;;;;;;;;5004380;28;20023;-73
2023/03/29 12:13:52;;;;;;;;;;;;;;;;;;5012853;28;19927;-74
2023/03/29 12:16:17;;;;;;;;;;;;;;;;;;4987294;28;19916;-69
2023/03/29 12:18:45;;;;;;;;;;;;;;;;;;5003871;28;20375;-73
2023/03/29 12:21:13;;;;;;;;;;;;;;;;;;4985425;28;20589;-70
2023/03/29 12:23:41;;;;;;;;;;;;;;;;;;5020966;28;19917;-72
2023/03/29 12:26:10;;;;;;;;;;;;;;;;;;5034815;28;21440;-72
2023/03/29 12:28:38;;;;;;;;;;;;;;;;;;4987645;28;19917;-73
2023/03/29 12:31:06;;;;;;;;;;;;;;;;;;5000254;28;20414;-73
2023/03/29 12:33:32;;;;;;;;;;;;;;;;;;5014890;28;19952;-69
2023/03/29 12:35:57;;;;;;;;;;;;;;;;;;4985035;28;20048;-73
2023/03/29 12:38:23;;;;;;;;;;;;;;;;;;5000349;28;19966;-68
2023/03/29 12:40:48;;;;;;;;;;;;;;;;;;5001811;28;19916;-73
2023/03/29 12:43:13;;;;;;;;;;;;;;;;;;4984911;28;19966;-72
2023/03/29 12:45:39;;;;;;;;;;;;;;;;;;5019654;28;19921;-71
2023/03/29 12:48:05;;;;;;;;;;;;;;;;;;5035948;28;19925;-70
2023/03/29 12:50:30;;;;;;;;;;;;;;;;;;5015049;28;19916;-71
2023/03/29 12:52:56;;;;;;;;;;;;;;;;;;4982659;28;20026;-69
2023/03/29 12:55:22;;;;;;;;;;;;;;;;;;5019674;28;19942;-69
2023/03/29 12:57:47;;;;;;;;;;;;;;;;;;5002377;28;20060;-70
2023/03/29 13:00:12;;;;;;;;;;;;;;;;;;5025123;28;19924;-73
2023/03/29 13:02:38;;;;;;;;;;;;;;;;;;5019786;28;19925;-70
2023/03/29 13:05:04;;;;;;;;;;;;;;;;;;4996471;28;19917;-73
2023/03/29 13:07:30;;;;;;;;;;;;;;;;;;4990491;28;19952;-70
2023/03/29 13:09:58;;;;;;;;;;;;;;;;;;5000515;28;19934;-68
2023/03/29 13:12:25;;;;;;;;;;;;;;;;;;4985979;28;19921;-68
2023/03/29 13:14:51;;;;;;;;;;;;;;;;;;4986233;28;20452;-68
2023/03/29 13:17:20;;;;;;;;;;;;;;;;;;5004445;28;19967;-69
2023/03/29 13:19:45;;;;;;;;;;;;;;;;;;5000829;28;19995;-70
2023/03/29 13:22:10;;;;;;;;;;;;;;;;;;5003556;28;20067;-69
2023/03/29 13:24:39;;;;;;;;;;;;;;;;;;5001556;28;20071;-69
2023/03/29 13:27:04;;;;;;;;;;;;;;;;;;5004263;28;19966;-69
2023/03/29 13:29:29;;;;;;;;;;;;;;;;;;4985429;28;20019;-70
2023/03/29 13:31:55;;;;;;;;;;;;;;;;;;4998521;28;20012;-70
2023/03/29 13:34:23;;;;;;;;;;;;;;;;;;5032413;28;19917;-69
2023/03/29 13:36:48;;;;;;;;;;;;;;;;;;5003726;28;19928;-71
2023/03/29 13:39:15;;;;;;;;;;;;;;;;;;4998560;28;19921;-71
2023/03/29 13:41:41;;;;;;;;;;;;;;;;;;5002274;28;19921;-68
2023/03/29 13:44:06;;;;;;;;;;;;;;;;;;5000321;28;19917;-70
2023/03/29 13:46:31;;;;;;;;;;;;;;;;;;5002372;28;21179;-69
2023/03/29 13:48:57;;;;;;;;;;;;;;;;;;5002151;28;19925;-70
2023/03/29 13:51:22;;;;;;;;;;;;;;;;;;4999224;28;20955;-68
2023/03/29 13:53:47;;;;;;;;;;;;;;;;;;4998630;28;20313;-69
2023/03/29 13:56:13;;;;;;;;;;;;;;;;;;5015615;28;19921;-69
2023/03/29 13:58:38;;;;;;;;;;;;;;;;;;4999142;28;20400;-69
2023/03/29 14:01:05;;;;;;;;;;;;;;;;;;5001765;28;20187;-68
2023/03/29 14:03:30;;;;;;;;;;;;;;;;;;4993760;28;20368;-69
2023/03/29 14:05:55;;;;;;;;;;;;;;;;;;5000642;28;19933;-70
2023/03/29 14:08:20;;;;;;;;;;;;;;;;;;4999783;28;20707;-69
2023/03/29 14:10:48;;;;;;;;;;;;;;;;;;5033740;28;19975;-68
2023/03/29 14:13:13;;;;;;;;;;;;;;;;;;5001803;28;19921;-70
2023/03/29 14:15:39;;;;;;;;;;;;;;;;;;4985375;28;20119;-71
2023/03/29 14:18:04;;;;;;;;;;;;;;;;;;5003998;28;19921;-72
2023/03/29 14:20:30;;;;;;;;;;;;;;;;;;5001835;28;19921;-70
2023/03/29 14:22:55;;;;;;;;;;;;;;;;;;4987444;28;19929;-70
2023/03/29 14:25:23;;;;;;;;;;;;;;;;;;5001634;28;19917;-68
2023/03/29 14:27:48;;;;;;;;;;;;;;;;;;4983469;28;20536;-68
2023/03/29 14:30:14;;;;;;;;;;;;;;;;;;5032384;28;20314;-69
2023/03/29 14:32:39;;;;;;;;;;;;;;;;;;4984199;28;20596;-70
2023/03/29 14:35:07;;;;;;;;;;;;;;;;;;4982765;28;20164;-70
2023/03/29 14:37:32;;;;;;;;;;;;;;;;;;5001649;28;20413;-70
2023/03/29 14:39:57;;;;;;;;;;;;;;;;;;5001102;28;19917;-69
2023/03/29 14:42:23;;;;;;;;;;;;;;;;;;5002762;28;19919;-69
2023/03/29 14:44:48;;;;;;;;;;;;;;;;;;5002658;28;20329;-70
2023/03/29 14:47:16;;;;;;;;;;;;;;;;;;5000879;28;19935;-69
2023/03/29 14:49:42;;;;;;;;;;;;;;;;;;5002439;28;19921;-70
2023/03/29 14:52:07;;;;;;;;;;;;;;;;;;4998449;28;19944;-70
2023/03/29 14:54:33;;;;;;;;;;;;;;;;;;5001274;28;20415;-70
2023/03/29 14:56:58;;;;;;;;;;;;;;;;;;5003334;28;19967;-69
2023/03/29 14:59:23;;;;;;;;;;;;;;;;;;4980617;28;20016;-69
2023/03/29 15:01:49;;;;;;;;;;;;;;;;;;5000455;28;19999;-70
2023/03/29 15:04:14;;;;;;;;;;;;;;;;;;5003126;28;19944;-69
2023/03/29 15:06:40;;;;;;;;;;;;;;;;;;5013001;28;20075;-68
2023/03/29 15:09:05;;;;;;;;;;;;;;;;;;4999001;28;20016;-69
2023/03/29 15:11:31;;;;;;;;;;;;;;;;;;4983632;28;19928;-69
2023/03/29 15:13:57;;;;;;;;;;;;;;;;;;4997952;28;19917;-69
2023/03/29 15:16:22;;;;;;;;;;;;;;;;;;4983872;28;19967;-69
2023/03/29 15:18:48;;;;;;;;;;;;;;;;;;4982980;28;19943;-70
2023/03/29 15:21:13;;;;;;;;;;;;;;;;;;4983935;28;20431;-70
2023/03/29 15:23:38;;;;;;;;;;;;;;;;;;5002148;28;19920;-68
2023/03/29 15:26:04;;;;;;;;;;;;;;;;;;4982015;28;20629;-69
2023/03/29 15:28:29;;;;;;;;;;;;;;;;;;4998147;28;19921;-68
2023/03/29 15:31:00;;;;;;;;;;;;;;;;;;4996741;28;19925;-68
2023/03/29 15:33:26;;;;;;;;;;;;;;;;;;5000678;28;19956;-68
2023/03/29 15:35:51;;;;;;;;;;;;;;;;;;4999916;28;20036;-69
2023/03/29 15:38:16;;;;;;;;;;;;;;;;;;5003530;28;20040;-70
2023/03/29 15:40:42;;;;;;;;;;;;;;;;;;4999112;28;20784;-69
2023/03/29 15:43:08;;;;;;;;;;;;;;;;;;4999920;28;20191;-70
2023/03/29 15:45:33;;;;;;;;;;;;;;;;;;4979822;28;20057;-69
2023/03/29 15:48:03;;;;;;;;;;;;;;;;;;4999063;28;20294;-70
2023/03/29 15:50:28;;;;;;;;;;;;;;;;;;4996499;28;19971;-69
2023/03/29 15:52:58;;;;;;;;;;;;;;;;;;4999261;28;19925;-68
2023/03/29 15:55:25;;;;;;;;;;;;;;;;;;5001268;28;20883;-68
2023/03/29 15:57:53;;;;;;;;;;;;;;;;;;4994847;28;20620;-67
2023/03/29 16:00:18;;;;;;;;;;;;;;;;;;4987685;28;20186;-70
2023/03/29 16:02:44;;;;;;;;;;;;;;;;;;4997848;28;19921;-68
2023/03/29 16:05:12;;;;;;;;;;;;;;;;;;4978001;28;19927;-69
2023/03/29 16:07:37;;;;;;;;;;;;;;;;;;4999353;28;19933;-66
2023/03/29 16:10:03;;;;;;;;;;;;;;;;;;4997640;28;20011;-68
2023/03/29 16:12:30;;;;;;;;;;;;;;;;;;4999027;28;19921;-67
2023/03/29 16:14:56;;;;;;;;;;;;;;;;;;4980516;28;20489;-69
2023/03/29 16:17:21;;;;;;;;;;;;;;;;;;4999943;28;20136;-68
2023/03/29 16:19:47;;;;;;;;;;;;;;;;;;4999219;28;19924;-69
2023/03/29 16:22:12;;;;;;;;;;;;;;;;;;4982331;28;19982;-69
2023/03/29 16:24:40;;;;;;;;;;;;;;;;;;5001218;28;20307;-68
2023/03/29 16:27:05;;;;;;;;;;;;;;;;;;4993836;28;19939;-70
2023/03/29 16:29:31;;;;;;;;;;;;;;;;;;4997640;28;19921;-68
2023/03/29 16:31:58;;;;;;;;;;;;;;;;;;4975702;28;19921;-68
2023/03/29 16:34:23;;;;;;;;;;;;;;;;;;5004172;28;20394;-67
2023/03/29 16:36:49;;;;;;;;;;;;;;;;;;5037752;28;21815;-68
2023/03/29 16:39:16;;;;;;;;;;;;;;;;;;5002582;28;19921;-68
2023/03/29 16:41:43;;;;;;;;;;;;;;;;;;5002828;28;19983;-68
2023/03/29 16:44:09;;;;;;;;;;;;;;;;;;5016150;28;19997;-69
2023/03/29 16:46:35;;;;;;;;;;;;;;;;;;5004252;28;19929;-68
2023/03/29 16:49:01;;;;;;;;;;;;;;;;;;5002940;28;19917;-69